Old Orchard Beach, Maine
Current Conditions -  °F | °C
As of 10:51 AM on Friday 19 Dec 2014 (Local Time) from KPWM Reporting Station
Scattered Clouds Scattered Clouds  
Wind Chill: -2°   Ceiling: Unl
Heat Index:   Visibility: 10mi
Dew Point: -4°   Wind: 14mph
Humidity: 59%   Direction: 350°N
Pressure: 29.93"   Gusts: NA
Location:  43.52°N, 70.38°W
Report Text: KPWM 191551Z 35012KT 10SM SCT055 03/M04 A2993 RMK AO2 SLP136 T00281044
Loading
Personal Weather Stations






























Interactive Weather Map New forecast layout! Learn more

10-Day Weather Forecast

Advertisements
Track Severe Weather on mobile